Latest Coastal Weather Observations for Cape Leeuwin

IDW60701

Issued at 3:44 pm WST Wednesday 23 September 2020 (issued every 10 minutes, with the page automatically refreshed every 10 minutes)

About coastal observations | Map of coastal stations | Coastal observations for WA | Marine services | Other Formats
Station Details ID: 009518 Name: CAPE LEEUWIN Lat: -34.37 Lon: 115.14 Height: 13.0 m
Data from the previous 72 hours. | See also: Recent months at Cape Leeuwin
Date/Time
WST
Wind Sea
Height
m
Swell Vis
km
Cloud Weather Temp
°C
Press
MSL
hPa
Rain since
9am
mm
Dir  Spd
kts
Gust
kts
Height
m
Period
s
Dir
23/03:30pm SE 14 18 - - - - - - - 17.6 1024.1 0.0
23/03:00pm SE 14 18 - - - - - - - 17.9 1024.0 0.0
23/02:30pm SE 15 18 - - - - - - - 18.0 1024.3 0.0
23/02:00pm SE 15 18 - - - - - - - 17.6 1024.4 0.0
23/01:30pm SE 14 18 - - - - - - - 17.9 1024.9 0.0
23/01:00pm SE 14 18 - - - - - - - 17.7 1025.2 0.0
23/12:30pm SE 12 16 - - - - - - - 17.7 1025.5 0.0
23/12:00pm SE 12 16 - - - - - - - 17.3 1025.8 0.0
23/11:30am SE 11 15 - - - - - - - 17.0 1026.1 0.0
23/11:00am ESE 11 13 - - - - - - - 16.7 1026.6 0.0
23/10:30am ESE 11 14 - - - - - - - 16.4 1026.8 0.0
23/10:00am ESE 12 14 - - - - - - - 16.2 1027.0 0.0
23/09:30am E 13 16 - - - - - - - 15.8 1027.1 0.0
23/09:00am E 13 15 - - - - - - - 15.6 1027.0 0.2
23/08:30am E 10 13 - - - - - - - 14.6 1027.1 0.2
23/08:00am ENE 11 13 - - - - - - - 14.0 1027.1 0.2
23/07:30am ENE 10 14 - - - - - - - 13.3 1027.0 0.2
23/07:00am NE 11 13 - - - - - - - 12.5 1026.7 0.2
23/06:30am NE 11 13 - - - - - - - 11.8 1026.6 0.2
23/06:00am ENE 9 11 - - - - - - - 12.0 1026.5 0.2
23/05:30am NE 7 9 - - - - - - - 11.7 1026.2 0.2
23/05:00am ESE 9 12 - - - - - - - 13.9 1026.0 0.2
23/04:30am ESE 9 11 - - - - - - - 13.5 1025.8 0.2
23/04:00am SE 7 11 - - - - - - - 13.4 1025.8 0.2
23/03:30am ESE 8 11 - - - - - - - 13.6 1025.7 0.2
23/03:00am SE 7 9 - - - - - - - 13.4 1025.7 0.2
23/02:30am SE 9 11 - - - - - - - 13.5 1025.7 0.2
23/02:00am SE 7 9 - - - - - - - 13.6 1025.8 0.2
23/01:30am S 5 8 - - - - - - - 13.7 1025.9 0.2
23/01:00am S 6 9 - - - - - - - 13.8 1026.2 0.2
23/12:30am SSE 8 9 - - - - - - - 13.9 1026.2 0.2
23/12:00am SSE 8 10 - - - - - - - 14.1 1026.2 0.2
 
Date/Time
WST
Wind Sea
Height
m
Swell Vis
km
Cloud Weather Temp
°C
Press
MSL
hPa
Rain since
9am
mm
Dir  Spd
kts
Gust
kts
Height
m
Period
s
Dir
22/11:30pm SSE 9 13 - - - - - - - 14.1 1026.2 0.2
22/11:00pm S 9 11 - - - - - - - 14.3 1026.2 0.2
22/10:30pm S 8 10 - - - - - - - 14.3 1026.1 0.2
22/10:00pm SSW 8 11 - - - - - - - 14.4 1026.1 0.2
22/09:30pm SSW 9 12 - - - - - - - 14.4 1026.1 0.2
22/09:00pm SSW 10 13 - - - - - - - 14.4 1026.0 0.2
22/08:30pm S 9 11 - - - - - - - 14.5 1025.9 0.2
22/08:00pm SSW 6 10 - - - - - - - 14.6 1025.5 0.2
22/07:30pm SW 6 10 - - - - - - - 14.5 1025.0 0.2
22/07:00pm S 6 8 - - - - - - - 14.3 1024.6 0.2
22/06:30pm SSW 7 11 - - - - - - - 14.6 1024.5 0.2
22/06:00pm SSW 6 8 - - - - - - - 14.7 1024.5 0.2
22/05:30pm SSW 7 9 - - - - - - - 15.0 1024.3 0.2
22/05:00pm SW 8 11 - - - - - - - 15.4 1024.2 0.2
22/04:30pm SW 8 10 - - - - - - - 15.6 1024.0 0.2
22/04:00pm WSW 8 10 - - - - - - - 15.7 1023.9 0.2
22/03:30pm SW 8 11 - - - - - - - 16.3 1023.7 0.2
22/03:00pm SSW 7 10 - - - - - - - 16.6 1023.5 0.2
22/02:30pm SW 7 11 - - - - - - - 16.3 1023.4 0.2
22/02:00pm WSW 10 12 - - - - - - - 16.7 1023.5 0.2
22/01:30pm WSW 11 14 - - - - - - - 16.6 1023.5 0.2
22/01:00pm WSW 11 14 - - - - - - - 16.4 1023.6 0.2
22/12:30pm WSW 13 15 - - - - - - - 16.1 1023.7 0.2
22/12:00pm W 11 14 - - - - - - Rain 16.9 1023.7 0.2
22/11:30am W 11 14 - - - - - - - 16.2 1023.8 0.0
22/11:00am W 12 15 - - - - - - - 16.2 1023.9 0.0
22/10:30am W 11 14 - - - - - - - 16.1 1023.9 0.0
22/10:00am WSW 11 13 - - - - - - - 15.8 1024.0 0.0
22/09:30am WSW 11 15 - - - - - - - 15.3 1023.9 0.0
22/09:00am WSW 10 13 - - - - - - - 14.8 1023.7 2.2
22/08:30am WSW 9 11 - - - - - - - 15.1 1023.4 2.2
22/08:00am SW 10 13 - - - - - - - 14.7 1023.2 2.2
22/07:30am SW 9 12 - - - - - - - 14.1 1022.8 2.2
22/07:00am WSW 12 16 - - - - - - - 13.4 1022.5 2.2
22/06:30am SW 12 15 - - - - - - - 13.1 1022.1 2.2
22/06:00am SW 12 15 - - - - - - - 13.1 1021.8 2.2
22/05:30am SW 13 16 - - - - - - - 13.2 1021.5 2.2
22/05:00am WSW 15 18 - - - - - - - 13.6 1021.3 2.2
22/04:30am WSW 14 17 - - - - - - - 13.8 1021.1 2.2
22/04:00am WSW 15 19 - - - - - - - 13.9 1020.9 2.2
22/03:30am WSW 15 19 - - - - - - - 13.8 1020.9 2.2
22/03:00am WSW 13 17 - - - - - - - 13.6 1020.8 2.2
22/02:30am SW 13 17 - - - - - - - 13.7 1020.7 2.2
22/02:00am SW 16 19 - - - - - - - 14.0 1020.7 2.2
22/01:30am SW 17 19 - - - - - - - 14.2 1020.8 2.2
22/01:00am SW 16 21 - - - - - - - 14.3 1020.7 2.2
22/12:30am SW 16 20 - - - - - - - 14.4 1020.7 2.2
22/12:00am SW 17 21 - - - - - - - 14.4 1020.5 2.2
 
Date/Time
WST
Wind Sea
Height
m
Swell Vis
km
Cloud Weather Temp
°C
Press
MSL
hPa
Rain since
9am
mm
Dir  Spd
kts
Gust
kts
Height
m
Period
s
Dir
21/11:30pm WSW 18 22 - - - - - - - 14.8 1020.6 2.2
21/11:00pm WSW 17 21 - - - - - - - 14.7 1020.6 2.2
21/10:30pm WSW 17 19 - - - - - - - 14.8 1020.8 2.2
21/10:00pm WSW 17 21 - - - - - - - 14.9 1020.8 2.2
21/09:30pm WSW 20 22 - - - - - - - 14.8 1020.8 2.2
21/09:00pm WSW 20 23 - - - - - - - 14.8 1020.8 2.2
21/08:30pm WSW 22 26 - - - - - - - 14.9 1020.7 2.2
21/08:00pm WSW 21 26 - - - - - - - 14.9 1020.4 2.2
21/07:30pm WSW 20 26 - - - - - - - 14.4 1020.2 2.2
21/07:00pm W 23 29 - - - - - - - 15.1 1020.0 2.2
21/06:30pm W 25 30 - - - - - - - 15.4 1019.7 1.6
21/06:00pm WNW 23 27 - - - - - - - 15.0 1019.7 1.6
21/05:30pm WNW 22 27 - - - - - - - 14.9 1019.7 1.6
21/05:00pm WNW 22 26 - - - - - - - 14.9 1019.7 1.6
21/04:30pm WNW 24 31 - - - - - - - 14.8 1019.6 1.0
21/04:00pm WNW 22 25 - - - - - - - 14.9 1019.6 0.2
21/03:30pm NW 19 23 - - - - - - - 15.3 1019.7 0.2
21/03:00pm WNW 21 27 - - - - - - - 14.6 1019.8 0.2
21/02:30pm WNW 19 23 - - - - - - - 15.7 1019.7 0.2
21/02:00pm WNW 19 22 - - - - - - - 15.7 1019.9 0.2
21/01:30pm W 20 24 - - - - - - - 15.5 1020.1 0.2
21/01:00pm WNW 17 22 - - - - - - - 14.9 1020.4 0.2
21/12:30pm WNW 17 23 - - - - - - - 14.3 1020.6 0.2
21/12:00pm W 15 22 - - - - - - - 14.7 1020.8 0.2
21/11:30am W 15 18 - - - - - - - 14.9 1020.9 0.2
21/11:00am W 14 17 - - - - - - - 15.6 1020.9 0.2
21/10:30am W 18 21 - - - - - - - 15.0 1021.2 0.2
21/10:00am WSW 18 21 - - - - - - - 14.7 1021.3 0.0
21/09:30am WSW 20 24 - - - - - - - 14.2 1021.3 0.0
21/09:00am WSW 17 21 - - - - - - - 14.2 1021.1 0.0
21/08:30am WSW 18 23 - - - - - - - 13.9 1020.9 0.0
21/08:00am WSW 19 23 - - - - - - - 13.7 1020.8 0.0
21/07:30am WSW 17 24 - - - - - - - 13.3 1020.7 0.0
21/07:00am SW 17 22 - - - - - - - 13.0 1020.5 0.0
21/06:30am WSW 18 25 - - - - - - - 12.9 1020.3 0.0
21/06:00am SW 17 22 - - - - - - - 12.4 1020.3 0.0
21/05:30am SW 20 25 - - - - - - - 12.5 1020.0 0.0
21/05:00am SW 19 26 - - - - - - - 12.3 1020.0 0.0
21/04:30am SW 19 22 - - - - - - - 12.1 1019.8 0.0
21/04:00am WSW 22 26 - - - - - - - 12.4 1019.6 0.0
21/03:30am SW 21 25 - - - - - - - 12.0 1019.7 0.0
21/03:11am SW 18 26 - - - - - - - 11.9 1019.7 0.0
21/03:00am SW 24 32 - - - - - - - 12.2 1019.8 0.0
21/02:52am WSW 21 32 - - - - - - - 12.7 1019.6 0.0
21/02:30am SW 24 29 - - - - - - - 12.1 1019.7 0.0
21/02:00am WSW 21 31 - - - - - - - 12.4 1019.7 0.0
21/01:54am WSW 21 31 - - - - - - - 12.2 1019.7 0.0
21/01:30am SW 21 26 - - - - - - - 12.5 1019.7 0.0
21/01:00am SW 21 28 - - - - - - - 12.5 1019.9 0.0
21/12:30am SW 21 28 - - - - - - - 12.7 1019.6 0.0
21/12:00am SW 22 27 - - - - - - - 12.4 1019.6 0.0
 
Date/Time
WST
Wind Sea
Height
m
Swell Vis
km
Cloud Weather Temp
°C
Press
MSL
hPa
Rain since
9am
mm
Dir  Spd
kts
Gust
kts
Height
m
Period
s
Dir
20/11:30pm WSW 24 31 - - - - - - - 12.6 1019.5 0.0
20/11:00pm WSW 23 29 - - - - - - - 12.7 1019.5 0.0
20/10:30pm SW 23 28 - - - - - - - 12.7 1019.5 0.0
20/10:00pm WSW 24 28 - - - - - - - 12.6 1019.6 0.0
20/09:30pm SW 24 28 - - - - - - - 12.8 1019.4 0.0
20/09:00pm SW 25 31 - - - - - - - 12.3 1019.4 0.0
20/08:30pm WSW 22 28 - - - - - - - 12.8 1019.2 0.0
20/08:00pm SW 25 30 - - - - - - - 12.7 1019.0 0.0
20/07:30pm SW 26 30 - - - - - - - 13.1 1018.5 0.0
20/07:00pm WSW 26 31 - - - - - - - 13.0 1018.1 0.0
20/06:30pm SW 27 32 - - - - - - - 12.5 1017.8 0.0
20/06:00pm WSW 27 32 - - - - - - - 12.8 1017.4 0.0
20/05:30pm WSW 26 33 - - - - - - - 13.3 1017.1 0.0
20/05:00pm WSW 27 33 - - - - - - - 13.3 1016.7 0.0
20/04:30pm WSW 29 36 - - - - - - - 12.7 1016.5 0.0
20/04:00pm WSW 29 39 - - - - - - - 13.0 1016.1 0.0
20/03:52pm WSW 28 39 - - - - - - - 13.4 1015.9 0.0

Other formats

Comma delimited format used in spreadsheet applications
http://www.bom.gov.au/fwo/IDW60701/IDW60701.94601.axf

JavaScript Object Notation format (JSON) in row-major order
http://www.bom.gov.au/fwo/IDW60701/IDW60701.94601.json

Data quality

Most of these data are generated automatically and are frequently updated. Quality checks on data are not normally performed. It is possible for incorrect values to appear. Refer to information at About Latest Weather Observations and please check the disclaimer before using these data.